sensor_id;sensor_type;location;lat;lon;timestamp;P1;durP1;ratioP1;P2;durP2;ratioP2
3865;SDS011;1948;53.250;10.412;2022-11-27T00:01:30;34.83;;;14.17;;
3865;SDS011;1948;53.250;10.412;2022-11-27T00:03:59;40.23;;;14.83;;
3865;SDS011;1948;53.250;10.412;2022-11-27T00:06:27;34.90;;;14.53;;
3865;SDS011;1948;53.250;10.412;2022-11-27T00:08:59;36.43;;;15.63;;
3865;SDS011;1948;53.250;10.412;2022-11-27T00:11:30;40.20;;;16.23;;
3865;SDS011;1948;53.250;10.412;2022-11-27T00:13:59;29.30;;;15.83;;
3865;SDS011;1948;53.250;10.412;2022-11-27T00:16:27;28.83;;;15.00;;
3865;SDS011;1948;53.250;10.412;2022-11-27T00:18:56;46.47;;;15.47;;
3865;SDS011;1948;53.250;10.412;2022-11-27T00:21:28;38.03;;;16.43;;
3865;SDS011;1948;53.250;10.412;2022-11-27T00:24:01;38.17;;;14.47;;
3865;SDS011;1948;53.250;10.412;2022-11-27T00:26:30;29.07;;;13.40;;
3865;SDS011;1948;53.250;10.412;2022-11-27T00:29:03;46.50;;;15.43;;
3865;SDS011;1948;53.250;10.412;2022-11-27T00:31:37;30.30;;;15.20;;
3865;SDS011;1948;53.250;10.412;2022-11-27T00:34:07;31.20;;;12.70;;
3865;SDS011;1948;53.250;10.412;2022-11-27T00:36:34;28.07;;;13.83;;
3865;SDS011;1948;53.250;10.412;2022-11-27T00:39:02;33.27;;;13.67;;
3865;SDS011;1948;53.250;10.412;2022-11-27T00:41:33;32.67;;;14.37;;
3865;SDS011;1948;53.250;10.412;2022-11-27T00:44:00;44.73;;;15.37;;
3865;SDS011;1948;53.250;10.412;2022-11-27T00:46:32;27.33;;;13.17;;
3865;SDS011;1948;53.250;10.412;2022-11-27T00:49:01;29.43;;;13.20;;
3865;SDS011;1948;53.250;10.412;2022-11-27T00:51:30;39.77;;;14.17;;
3865;SDS011;1948;53.250;10.412;2022-11-27T00:53:57;29.40;;;13.20;;
3865;SDS011;1948;53.250;10.412;2022-11-27T00:56:25;36.90;;;15.70;;
3865;SDS011;1948;53.250;10.412;2022-11-27T00:58:58;34.77;;;14.27;;
3865;SDS011;1948;53.250;10.412;2022-11-27T01:03:55;40.23;;;14.83;;
3865;SDS011;1948;53.250;10.412;2022-11-27T01:06:24;49.57;;;14.50;;
3865;SDS011;1948;53.250;10.412;2022-11-27T01:08:52;31.53;;;14.20;;
3865;SDS011;1948;53.250;10.412;2022-11-27T01:11:21;39.87;;;14.20;;
3865;SDS011;1948;53.250;10.412;2022-11-27T01:13:52;29.23;;;13.70;;
3865;SDS011;1948;53.250;10.412;2022-11-27T01:16:24;34.40;;;13.10;;
3865;SDS011;1948;53.250;10.412;2022-11-27T01:18:54;38.03;;;13.50;;
3865;SDS011;1948;53.250;10.412;2022-11-27T01:21:25;30.57;;;13.80;;
3865;SDS011;1948;53.250;10.412;2022-11-27T01:23:55;28.13;;;13.50;;
3865;SDS011;1948;53.250;10.412;2022-11-27T01:26:22;31.40;;;15.10;;
3865;SDS011;1948;53.250;10.412;2022-11-27T01:28:52;29.37;;;13.97;;
3865;SDS011;1948;53.250;10.412;2022-11-27T01:31:22;26.17;;;14.77;;
3865;SDS011;1948;53.250;10.412;2022-11-27T01:33:55;27.50;;;13.60;;
3865;SDS011;1948;53.250;10.412;2022-11-27T01:36:28;39.20;;;14.47;;
3865;SDS011;1948;53.250;10.412;2022-11-27T01:38:56;28.73;;;13.97;;
3865;SDS011;1948;53.250;10.412;2022-11-27T01:41:27;34.87;;;13.70;;
3865;SDS011;1948;53.250;10.412;2022-11-27T01:44:01;36.13;;;14.37;;
3865;SDS011;1948;53.250;10.412;2022-11-27T01:46:59;30.77;;;14.47;;
3865;SDS011;1948;53.250;10.412;2022-11-27T01:50:08;31.13;;;14.47;;
3865;SDS011;1948;53.250;10.412;2022-11-27T01:52:44;33.73;;;14.27;;
3865;SDS011;1948;53.250;10.412;2022-11-27T01:55:18;28.67;;;14.00;;
3865;SDS011;1948;53.250;10.412;2022-11-27T01:58:09;53.23;;;14.90;;
3865;SDS011;1948;53.250;10.412;2022-11-27T02:00:42;29.03;;;15.00;;
3865;SDS011;1948;53.250;10.412;2022-11-27T02:03:11;32.70;;;15.30;;
3865;SDS011;1948;53.250;10.412;2022-11-27T02:05:38;31.03;;;14.50;;
3865;SDS011;1948;53.250;10.412;2022-11-27T02:08:09;38.17;;;14.83;;
3865;SDS011;1948;53.250;10.412;2022-11-27T02:10:48;39.07;;;13.80;;
3865;SDS011;1948;53.250;10.412;2022-11-27T02:13:43;36.67;;;14.03;;
3865;SDS011;1948;53.250;10.412;2022-11-27T02:30:21;34.73;;;15.63;;
3865;SDS011;1948;53.250;10.412;2022-11-27T02:32:58;34.00;;;14.37;;
3865;SDS011;1948;53.250;10.412;2022-11-27T02:35:43;35.60;;;14.00;;
3865;SDS011;1948;53.250;10.412;2022-11-27T02:41:15;33.20;;;15.07;;
3865;SDS011;1948;53.250;10.412;2022-11-27T02:44:04;34.53;;;14.20;;
3865;SDS011;1948;53.250;10.412;2022-11-27T02:46:37;35.83;;;14.00;;
3865;SDS011;1948;53.250;10.412;2022-11-27T02:49:08;34.47;;;14.10;;
3865;SDS011;1948;53.250;10.412;2022-11-27T02:51:58;34.17;;;15.50;;
3865;SDS011;1948;53.250;10.412;2022-11-27T02:54:30;32.83;;;14.63;;
3865;SDS011;1948;53.250;10.412;2022-11-27T02:57:00;30.53;;;15.53;;
3865;SDS011;1948;53.250;10.412;2022-11-27T02:59:30;38.03;;;16.27;;
3865;SDS011;1948;53.250;10.412;2022-11-27T03:02:03;35.37;;;14.93;;
3865;SDS011;1948;53.250;10.412;2022-11-27T03:04:42;34.73;;;15.00;;
3865;SDS011;1948;53.250;10.412;2022-11-27T03:07:25;38.27;;;15.37;;
3865;SDS011;1948;53.250;10.412;2022-11-27T03:10:16;40.77;;;14.17;;
3865;SDS011;1948;53.250;10.412;2022-11-27T03:12:56;30.10;;;14.87;;
3865;SDS011;1948;53.250;10.412;2022-11-27T03:15:26;38.27;;;15.23;;
3865;SDS011;1948;53.250;10.412;2022-11-27T03:18:11;29.37;;;14.73;;
3865;SDS011;1948;53.250;10.412;2022-11-27T03:20:54;34.73;;;14.27;;
3865;SDS011;1948;53.250;10.412;2022-11-27T03:23:30;32.07;;;14.80;;
3865;SDS011;1948;53.250;10.412;2022-11-27T03:25:57;33.83;;;15.40;;
3865;SDS011;1948;53.250;10.412;2022-11-27T03:28:24;43.60;;;15.33;;
3865;SDS011;1948;53.250;10.412;2022-11-27T03:30:53;32.00;;;15.70;;
3865;SDS011;1948;53.250;10.412;2022-11-27T03:33:20;41.83;;;16.13;;
3865;SDS011;1948;53.250;10.412;2022-11-27T03:35:47;33.47;;;14.40;;
3865;SDS011;1948;53.250;10.412;2022-11-27T03:38:14;45.03;;;15.80;;
3865;SDS011;1948;53.250;10.412;2022-11-27T03:40:44;32.13;;;15.90;;
3865;SDS011;1948;53.250;10.412;2022-11-27T03:44:03;35.70;;;14.97;;
3865;SDS011;1948;53.250;10.412;2022-11-27T03:47:02;37.37;;;16.30;;
3865;SDS011;1948;53.250;10.412;2022-11-27T04:01:28;33.00;;;15.37;;
3865;SDS011;1948;53.250;10.412;2022-11-27T04:03:56;38.73;;;16.60;;
3865;SDS011;1948;53.250;10.412;2022-11-27T04:06:26;32.20;;;16.20;;
3865;SDS011;1948;53.250;10.412;2022-11-27T04:08:53;35.47;;;15.23;;
3865;SDS011;1948;53.250;10.412;2022-11-27T04:11:20;33.50;;;16.63;;
3865;SDS011;1948;53.250;10.412;2022-11-27T04:13:49;41.37;;;17.27;;
3865;SDS011;1948;53.250;10.412;2022-11-27T04:16:19;34.77;;;16.60;;
3865;SDS011;1948;53.250;10.412;2022-11-27T04:18:51;36.60;;;15.90;;
3865;SDS011;1948;53.250;10.412;2022-11-27T04:21:18;38.70;;;17.00;;
3865;SDS011;1948;53.250;10.412;2022-11-27T04:23:45;38.10;;;15.50;;
3865;SDS011;1948;53.250;10.412;2022-11-27T04:26:14;36.60;;;16.43;;
3865;SDS011;1948;53.250;10.412;2022-11-27T04:28:43;35.53;;;16.20;;
3865;SDS011;1948;53.250;10.412;2022-11-27T04:31:16;41.87;;;16.70;;
3865;SDS011;1948;53.250;10.412;2022-11-27T04:33:45;48.57;;;15.90;;
3865;SDS011;1948;53.250;10.412;2022-11-27T04:36:12;33.13;;;15.83;;
3865;SDS011;1948;53.250;10.412;2022-11-27T04:38:39;33.33;;;16.00;;
3865;SDS011;1948;53.250;10.412;2022-11-27T04:41:06;30.53;;;16.27;;
3865;SDS011;1948;53.250;10.412;2022-11-27T04:43:32;40.73;;;16.30;;
3865;SDS011;1948;53.250;10.412;2022-11-27T04:46:02;34.53;;;17.10;;
3865;SDS011;1948;53.250;10.412;2022-11-27T04:48:32;42.80;;;17.07;;
3865;SDS011;1948;53.250;10.412;2022-11-27T04:51:02;37.93;;;17.13;;
3865;SDS011;1948;53.250;10.412;2022-11-27T04:53:29;45.53;;;16.80;;
3865;SDS011;1948;53.250;10.412;2022-11-27T04:55:58;51.17;;;18.97;;
3865;SDS011;1948;53.250;10.412;2022-11-27T04:58:28;43.30;;;16.93;;
3865;SDS011;1948;53.250;10.412;2022-11-27T05:00:55;40.37;;;17.00;;
3865;SDS011;1948;53.250;10.412;2022-11-27T05:03:24;35.97;;;16.80;;
3865;SDS011;1948;53.250;10.412;2022-11-27T05:05:54;39.43;;;16.37;;
3865;SDS011;1948;53.250;10.412;2022-11-27T05:08:27;31.20;;;16.40;;
3865;SDS011;1948;53.250;10.412;2022-11-27T05:11:00;27.33;;;14.80;;
3865;SDS011;1948;53.250;10.412;2022-11-27T05:13:31;44.10;;;16.80;;
3865;SDS011;1948;53.250;10.412;2022-11-27T05:15:58;34.73;;;15.57;;
3865;SDS011;1948;53.250;10.412;2022-11-27T05:18:25;37.20;;;17.10;;
3865;SDS011;1948;53.250;10.412;2022-11-27T05:20:59;38.80;;;17.80;;
3865;SDS011;1948;53.250;10.412;2022-11-27T05:23:29;36.83;;;17.17;;
3865;SDS011;1948;53.250;10.412;2022-11-27T05:25:56;33.53;;;17.03;;
3865;SDS011;1948;53.250;10.412;2022-11-27T05:28:26;35.07;;;16.70;;
3865;SDS011;1948;53.250;10.412;2022-11-27T05:30:58;38.20;;;17.40;;
3865;SDS011;1948;53.250;10.412;2022-11-27T05:33:25;38.43;;;18.40;;
3865;SDS011;1948;53.250;10.412;2022-11-27T05:35:54;53.90;;;18.20;;
3865;SDS011;1948;53.250;10.412;2022-11-27T05:38:21;36.07;;;17.60;;
3865;SDS011;1948;53.250;10.412;2022-11-27T05:40:48;40.43;;;17.43;;
3865;SDS011;1948;53.250;10.412;2022-11-27T05:43:15;39.07;;;18.20;;
3865;SDS011;1948;53.250;10.412;2022-11-27T05:45:44;38.33;;;18.10;;
3865;SDS011;1948;53.250;10.412;2022-11-27T05:48:11;34.43;;;17.00;;
3865;SDS011;1948;53.250;10.412;2022-11-27T05:50:38;41.10;;;16.80;;
3865;SDS011;1948;53.250;10.412;2022-11-27T05:53:05;34.93;;;17.73;;
3865;SDS011;1948;53.250;10.412;2022-11-27T05:55:32;31.20;;;17.10;;
3865;SDS011;1948;53.250;10.412;2022-11-27T05:57:59;52.43;;;17.80;;
3865;SDS011;1948;53.250;10.412;2022-11-27T06:00:26;38.40;;;16.87;;
3865;SDS011;1948;53.250;10.412;2022-11-27T06:02:55;35.57;;;16.00;;
3865;SDS011;1948;53.250;10.412;2022-11-27T06:05:22;36.43;;;16.10;;
3865;SDS011;1948;53.250;10.412;2022-11-27T06:07:49;33.30;;;15.87;;
3865;SDS011;1948;53.250;10.412;2022-11-27T06:10:16;32.43;;;16.77;;
3865;SDS011;1948;53.250;10.412;2022-11-27T06:12:43;45.53;;;17.43;;
3865;SDS011;1948;53.250;10.412;2022-11-27T06:15:12;36.80;;;17.40;;
3865;SDS011;1948;53.250;10.412;2022-11-27T06:17:39;34.40;;;16.23;;
3865;SDS011;1948;53.250;10.412;2022-11-27T06:20:06;41.97;;;16.50;;
3865;SDS011;1948;53.250;10.412;2022-11-27T06:22:34;39.17;;;16.03;;
3865;SDS011;1948;53.250;10.412;2022-11-27T06:25:01;34.90;;;16.43;;
3865;SDS011;1948;53.250;10.412;2022-11-27T06:27:31;37.30;;;15.63;;
3865;SDS011;1948;53.250;10.412;2022-11-27T06:30:02;43.03;;;17.70;;
3865;SDS011;1948;53.250;10.412;2022-11-27T06:32:30;30.37;;;14.90;;
3865;SDS011;1948;53.250;10.412;2022-11-27T06:34:57;35.17;;;14.70;;
3865;SDS011;1948;53.250;10.412;2022-11-27T06:37:29;36.73;;;15.67;;
3865;SDS011;1948;53.250;10.412;2022-11-27T06:39:55;33.23;;;14.63;;
3865;SDS011;1948;53.250;10.412;2022-11-27T06:42:22;38.83;;;15.30;;
3865;SDS011;1948;53.250;10.412;2022-11-27T06:44:49;29.30;;;15.87;;
3865;SDS011;1948;53.250;10.412;2022-11-27T06:47:19;37.30;;;14.80;;
3865;SDS011;1948;53.250;10.412;2022-11-27T06:49:45;29.60;;;15.37;;
3865;SDS011;1948;53.250;10.412;2022-11-27T06:52:14;32.00;;;14.80;;
3865;SDS011;1948;53.250;10.412;2022-11-27T06:54:44;34.57;;;15.50;;
3865;SDS011;1948;53.250;10.412;2022-11-27T06:57:16;27.53;;;15.03;;
3865;SDS011;1948;53.250;10.412;2022-11-27T06:59:48;27.73;;;15.13;;
3865;SDS011;1948;53.250;10.412;2022-11-27T07:02:15;32.80;;;14.30;;
3865;SDS011;1948;53.250;10.412;2022-11-27T07:04:44;27.77;;;14.43;;
3865;SDS011;1948;53.250;10.412;2022-11-27T07:07:11;26.93;;;14.67;;
3865;SDS011;1948;53.250;10.412;2022-11-27T07:09:39;24.20;;;13.60;;
3865;SDS011;1948;53.250;10.412;2022-11-27T07:12:08;32.27;;;15.40;;
3865;SDS011;1948;53.250;10.412;2022-11-27T07:14:38;30.63;;;14.10;;
3865;SDS011;1948;53.250;10.412;2022-11-27T07:17:05;24.97;;;14.00;;
3865;SDS011;1948;53.250;10.412;2022-11-27T07:19:32;28.60;;;14.37;;
3865;SDS011;1948;53.250;10.412;2022-11-27T07:21:59;35.23;;;15.10;;
3865;SDS011;1948;53.250;10.412;2022-11-27T07:24:26;30.63;;;15.20;;
3865;SDS011;1948;53.250;10.412;2022-11-27T07:26:56;33.00;;;14.60;;
3865;SDS011;1948;53.250;10.412;2022-11-27T07:29:26;30.67;;;14.20;;
3865;SDS011;1948;53.250;10.412;2022-11-27T07:31:53;28.93;;;14.47;;
3865;SDS011;1948;53.250;10.412;2022-11-27T07:34:20;26.77;;;13.90;;
3865;SDS011;1948;53.250;10.412;2022-11-27T07:36:47;32.17;;;13.87;;
3865;SDS011;1948;53.250;10.412;2022-11-27T07:39:17;24.10;;;12.97;;
3865;SDS011;1948;53.250;10.412;2022-11-27T07:42:04;22.53;;;13.07;;
3865;SDS011;1948;53.250;10.412;2022-11-27T07:44:54;27.33;;;13.63;;
3865;SDS011;1948;53.250;10.412;2022-11-27T07:47:21;19.83;;;11.53;;
3865;SDS011;1948;53.250;10.412;2022-11-27T07:49:48;21.23;;;13.00;;
3865;SDS011;1948;53.250;10.412;2022-11-27T07:52:20;27.90;;;12.10;;
3865;SDS011;1948;53.250;10.412;2022-11-27T07:54:47;20.37;;;12.57;;
3865;SDS011;1948;53.250;10.412;2022-11-27T07:57:16;17.83;;;11.63;;
3865;SDS011;1948;53.250;10.412;2022-11-27T07:59:43;20.13;;;11.77;;
3865;SDS011;1948;53.250;10.412;2022-11-27T08:02:13;25.47;;;11.60;;
3865;SDS011;1948;53.250;10.412;2022-11-27T08:04:40;14.73;;;11.37;;
3865;SDS011;1948;53.250;10.412;2022-11-27T08:07:08;19.57;;;12.30;;
3865;SDS011;1948;53.250;10.412;2022-11-27T08:09:36;17.77;;;11.10;;
3865;SDS011;1948;53.250;10.412;2022-11-27T08:12:06;12.67;;;9.57;;
3865;SDS011;1948;53.250;10.412;2022-11-27T08:14:33;28.63;;;12.00;;
3865;SDS011;1948;53.250;10.412;2022-11-27T08:17:08;19.17;;;10.43;;
3865;SDS011;1948;53.250;10.412;2022-11-27T08:19:38;16.40;;;10.63;;
3865;SDS011;1948;53.250;10.412;2022-11-27T08:22:11;16.20;;;9.90;;
3865;SDS011;1948;53.250;10.412;2022-11-27T08:24:40;14.67;;;10.80;;
3865;SDS011;1948;53.250;10.412;2022-11-27T08:27:10;11.80;;;9.77;;
3865;SDS011;1948;53.250;10.412;2022-11-27T08:29:41;14.40;;;10.20;;
3865;SDS011;1948;53.250;10.412;2022-11-27T08:32:09;24.30;;;10.77;;
3865;SDS011;1948;53.250;10.412;2022-11-27T08:34:37;23.07;;;14.43;;
3865;SDS011;1948;53.250;10.412;2022-11-27T08:37:05;16.40;;;9.13;;
3865;SDS011;1948;53.250;10.412;2022-11-27T08:39:33;16.37;;;10.80;;
3865;SDS011;1948;53.250;10.412;2022-11-27T08:42:01;12.87;;;9.27;;
3865;SDS011;1948;53.250;10.412;2022-11-27T08:44:28;25.20;;;9.70;;
3865;SDS011;1948;53.250;10.412;2022-11-27T08:46:55;12.50;;;9.20;;
3865;SDS011;1948;53.250;10.412;2022-11-27T08:49:25;17.73;;;9.20;;
3865;SDS011;1948;53.250;10.412;2022-11-27T08:51:52;12.63;;;9.40;;
3865;SDS011;1948;53.250;10.412;2022-11-27T08:54:21;14.83;;;10.00;;
3865;SDS011;1948;53.250;10.412;2022-11-27T08:56:50;15.80;;;9.47;;
3865;SDS011;1948;53.250;10.412;2022-11-27T08:59:18;11.00;;;8.50;;
3865;SDS011;1948;53.250;10.412;2022-11-27T09:01:45;10.40;;;9.30;;
3865;SDS011;1948;53.250;10.412;2022-11-27T09:04:12;12.23;;;9.27;;
3865;SDS011;1948;53.250;10.412;2022-11-27T09:06:46;12.47;;;9.60;;
3865;SDS011;1948;53.250;10.412;2022-11-27T09:09:19;16.53;;;10.50;;
3865;SDS011;1948;53.250;10.412;2022-11-27T09:11:46;16.20;;;9.97;;
3865;SDS011;1948;53.250;10.412;2022-11-27T09:14:13;12.27;;;9.30;;
3865;SDS011;1948;53.250;10.412;2022-11-27T09:16:40;14.03;;;10.13;;
3865;SDS011;1948;53.250;10.412;2022-11-27T09:19:07;14.70;;;9.57;;
3865;SDS011;1948;53.250;10.412;2022-11-27T09:21:34;12.13;;;9.27;;
3865;SDS011;1948;53.250;10.412;2022-11-27T09:24:04;12.70;;;9.57;;
3865;SDS011;1948;53.250;10.412;2022-11-27T09:26:34;18.03;;;9.80;;
3865;SDS011;1948;53.250;10.412;2022-11-27T09:29:04;13.10;;;9.17;;
3865;SDS011;1948;53.250;10.412;2022-11-27T09:31:31;13.97;;;8.73;;
3865;SDS011;1948;53.250;10.412;2022-11-27T09:34:01;15.10;;;9.40;;
3865;SDS011;1948;53.250;10.412;2022-11-27T09:36:30;22.00;;;8.70;;
3865;SDS011;1948;53.250;10.412;2022-11-27T09:38:59;16.13;;;9.93;;
3865;SDS011;1948;53.250;10.412;2022-11-27T09:47:10;14.53;;;9.63;;
3865;SDS011;1948;53.250;10.412;2022-11-27T09:53:00;15.33;;;9.20;;
3865;SDS011;1948;53.250;10.412;2022-11-27T09:55:39;12.70;;;9.20;;
3865;SDS011;1948;53.250;10.412;2022-11-27T09:58:20;14.07;;;9.20;;
3865;SDS011;1948;53.250;10.412;2022-11-27T10:01:22;12.07;;;8.80;;
3865;SDS011;1948;53.250;10.412;2022-11-27T10:04:11;23.53;;;9.60;;
3865;SDS011;1948;53.250;10.412;2022-11-27T10:15:51;17.10;;;9.50;;
3865;SDS011;1948;53.250;10.412;2022-11-27T10:18:29;17.97;;;8.80;;
3865;SDS011;1948;53.250;10.412;2022-11-27T10:21:10;13.03;;;9.03;;
3865;SDS011;1948;53.250;10.412;2022-11-27T10:24:04;12.07;;;9.17;;
3865;SDS011;1948;53.250;10.412;2022-11-27T10:27:02;11.33;;;8.50;;
3865;SDS011;1948;53.250;10.412;2022-11-27T10:29:47;10.40;;;8.63;;
3865;SDS011;1948;53.250;10.412;2022-11-27T10:32:21;11.97;;;8.40;;
3865;SDS011;1948;53.250;10.412;2022-11-27T10:35:16;14.30;;;8.77;;
3865;SDS011;1948;53.250;10.412;2022-11-27T10:37:53;19.50;;;10.30;;
3865;SDS011;1948;53.250;10.412;2022-11-27T10:40:39;19.20;;;8.77;;
3865;SDS011;1948;53.250;10.412;2022-11-27T10:45:51;11.23;;;8.50;;
3865;SDS011;1948;53.250;10.412;2022-11-27T10:48:41;9.60;;;8.60;;
3865;SDS011;1948;53.250;10.412;2022-11-27T10:51:20;14.73;;;8.70;;
3865;SDS011;1948;53.250;10.412;2022-11-27T10:53:56;9.37;;;8.40;;
3865;SDS011;1948;53.250;10.412;2022-11-27T10:59:07;10.60;;;8.80;;
3865;SDS011;1948;53.250;10.412;2022-11-27T11:04:18;15.83;;;8.77;;
3865;SDS011;1948;53.250;10.412;2022-11-27T11:07:14;14.27;;;7.90;;
3865;SDS011;1948;53.250;10.412;2022-11-27T11:09:53;8.37;;;7.50;;
3865;SDS011;1948;53.250;10.412;2022-11-27T11:12:23;15.47;;;8.60;;
3865;SDS011;1948;53.250;10.412;2022-11-27T11:14:51;14.23;;;9.00;;
3865;SDS011;1948;53.250;10.412;2022-11-27T11:17:27;13.83;;;8.07;;
3865;SDS011;1948;53.250;10.412;2022-11-27T11:20:10;11.50;;;7.97;;
3865;SDS011;1948;53.250;10.412;2022-11-27T11:22:48;11.43;;;8.17;;
3865;SDS011;1948;53.250;10.412;2022-11-27T11:25:17;16.20;;;7.27;;
3865;SDS011;1948;53.250;10.412;2022-11-27T11:27:47;11.73;;;7.70;;
3865;SDS011;1948;53.250;10.412;2022-11-27T11:30:21;12.30;;;8.10;;
3865;SDS011;1948;53.250;10.412;2022-11-27T11:32:57;11.90;;;8.20;;
3865;SDS011;1948;53.250;10.412;2022-11-27T11:35:33;9.80;;;7.87;;
3865;SDS011;1948;53.250;10.412;2022-11-27T11:38:02;10.47;;;7.13;;
3865;SDS011;1948;53.250;10.412;2022-11-27T11:40:33;20.53;;;7.87;;
3865;SDS011;1948;53.250;10.412;2022-11-27T11:43:03;11.60;;;8.10;;
3865;SDS011;1948;53.250;10.412;2022-11-27T11:45:46;16.83;;;8.00;;
3865;SDS011;1948;53.250;10.412;2022-11-27T11:48:21;11.47;;;7.17;;
3865;SDS011;1948;53.250;10.412;2022-11-27T11:50:53;11.93;;;8.10;;
3865;SDS011;1948;53.250;10.412;2022-11-27T11:53:36;12.03;;;7.30;;
3865;SDS011;1948;53.250;10.412;2022-11-27T11:59:03;10.43;;;6.60;;
3865;SDS011;1948;53.250;10.412;2022-11-27T12:13:48;11.03;;;7.87;;
3865;SDS011;1948;53.250;10.412;2022-11-27T12:16:56;13.90;;;8.33;;
3865;SDS011;1948;53.250;10.412;2022-11-27T12:34:03;14.73;;;8.10;;
3865;SDS011;1948;53.250;10.412;2022-11-27T12:45:46;10.13;;;7.30;;
3865;SDS011;1948;53.250;10.412;2022-11-27T12:48:42;8.87;;;6.83;;
3865;SDS011;1948;53.250;10.412;2022-11-27T12:54:40;9.43;;;7.07;;
3865;SDS011;1948;53.250;10.412;2022-11-27T12:57:19;8.90;;;6.97;;
3865;SDS011;1948;53.250;10.412;2022-11-27T13:00:15;13.90;;;7.10;;
3865;SDS011;1948;53.250;10.412;2022-11-27T13:05:45;14.77;;;7.97;;
3865;SDS011;1948;53.250;10.412;2022-11-27T13:08:19;8.40;;;7.37;;
3865;SDS011;1948;53.250;10.412;2022-11-27T13:10:58;18.20;;;7.50;;
3865;SDS011;1948;53.250;10.412;2022-11-27T13:16:24;10.47;;;8.67;;
3865;SDS011;1948;53.250;10.412;2022-11-27T13:19:21;14.40;;;8.87;;
3865;SDS011;1948;53.250;10.412;2022-11-27T13:21:59;12.13;;;8.03;;
3865;SDS011;1948;53.250;10.412;2022-11-27T13:24:34;13.23;;;8.70;;
3865;SDS011;1948;53.250;10.412;2022-11-27T13:27:14;14.13;;;7.70;;
3865;SDS011;1948;53.250;10.412;2022-11-27T13:29:46;17.73;;;9.00;;
3865;SDS011;1948;53.250;10.412;2022-11-27T13:32:38;23.93;;;8.30;;
3865;SDS011;1948;53.250;10.412;2022-11-27T13:35:19;10.80;;;8.33;;
3865;SDS011;1948;53.250;10.412;2022-11-27T13:38:42;17.70;;;8.20;;
3865;SDS011;1948;53.250;10.412;2022-11-27T13:40:51;9.50;;;7.83;;
3865;SDS011;1948;53.250;10.412;2022-11-27T13:43:25;14.27;;;8.60;;
3865;SDS011;1948;53.250;10.412;2022-11-27T13:46:18;13.43;;;8.40;;
3865;SDS011;1948;53.250;10.412;2022-11-27T13:48:58;11.10;;;8.00;;
3865;SDS011;1948;53.250;10.412;2022-11-27T13:51:30;15.70;;;8.37;;
3865;SDS011;1948;53.250;10.412;2022-11-27T13:56:37;10.10;;;8.20;;
3865;SDS011;1948;53.250;10.412;2022-11-27T13:59:17;14.70;;;7.97;;
3865;SDS011;1948;53.250;10.412;2022-11-27T14:02:01;12.17;;;8.03;;
3865;SDS011;1948;53.250;10.412;2022-11-27T14:04:33;13.07;;;8.10;;
3865;SDS011;1948;53.250;10.412;2022-11-27T14:07:02;13.77;;;8.00;;
3865;SDS011;1948;53.250;10.412;2022-11-27T14:12:20;11.93;;;6.83;;
3865;SDS011;1948;53.250;10.412;2022-11-27T14:17:35;10.37;;;8.47;;
3865;SDS011;1948;53.250;10.412;2022-11-27T14:22:46;7.67;;;6.87;;
3865;SDS011;1948;53.250;10.412;2022-11-27T14:25:41;11.70;;;7.60;;
3865;SDS011;1948;53.250;10.412;2022-11-27T14:30:46;8.10;;;7.27;;
3865;SDS011;1948;53.250;10.412;2022-11-27T14:33:18;11.23;;;7.83;;
3865;SDS011;1948;53.250;10.412;2022-11-27T14:36:04;11.60;;;8.30;;
3865;SDS011;1948;53.250;10.412;2022-11-27T14:38:33;18.43;;;7.90;;
3865;SDS011;1948;53.250;10.412;2022-11-27T14:41:23;9.10;;;8.13;;
3865;SDS011;1948;53.250;10.412;2022-11-27T14:43:58;13.77;;;8.00;;
3865;SDS011;1948;53.250;10.412;2022-11-27T14:46:35;11.53;;;8.97;;
3865;SDS011;1948;53.250;10.412;2022-11-27T14:49:03;12.67;;;9.37;;
3865;SDS011;1948;53.250;10.412;2022-11-27T14:51:30;13.37;;;8.63;;
3865;SDS011;1948;53.250;10.412;2022-11-27T14:54:14;9.43;;;8.50;;
3865;SDS011;1948;53.250;10.412;2022-11-27T14:56:51;15.03;;;10.13;;
3865;SDS011;1948;53.250;10.412;2022-11-27T14:59:23;13.07;;;9.80;;
3865;SDS011;1948;53.250;10.412;2022-11-27T15:02:00;19.30;;;9.63;;
3865;SDS011;1948;53.250;10.412;2022-11-27T15:04:38;12.60;;;10.23;;
3865;SDS011;1948;53.250;10.412;2022-11-27T15:09:49;15.10;;;11.43;;
3865;SDS011;1948;53.250;10.412;2022-11-27T15:12:21;12.63;;;11.00;;
3865;SDS011;1948;53.250;10.412;2022-11-27T15:17:33;17.47;;;11.70;;
3865;SDS011;1948;53.250;10.412;2022-11-27T15:20:23;20.47;;;11.63;;
3865;SDS011;1948;53.250;10.412;2022-11-27T15:22:55;18.73;;;11.77;;
3865;SDS011;1948;53.250;10.412;2022-11-27T15:28:00;15.00;;;12.10;;
3865;SDS011;1948;53.250;10.412;2022-11-27T15:30:27;19.90;;;12.87;;
3865;SDS011;1948;53.250;10.412;2022-11-27T15:32:57;22.07;;;11.83;;
3865;SDS011;1948;53.250;10.412;2022-11-27T15:38:06;16.57;;;12.37;;
3865;SDS011;1948;53.250;10.412;2022-11-27T15:40:36;24.20;;;12.10;;
3865;SDS011;1948;53.250;10.412;2022-11-27T15:43:12;21.13;;;12.80;;
3865;SDS011;1948;53.250;10.412;2022-11-27T15:45:41;21.23;;;11.90;;
3865;SDS011;1948;53.250;10.412;2022-11-27T15:48:17;17.13;;;11.80;;
3865;SDS011;1948;53.250;10.412;2022-11-27T15:50:48;16.97;;;12.80;;
3865;SDS011;1948;53.250;10.412;2022-11-27T15:53:18;19.03;;;13.03;;
3865;SDS011;1948;53.250;10.412;2022-11-27T15:55:47;18.73;;;12.20;;
3865;SDS011;1948;53.250;10.412;2022-11-27T15:58:16;23.13;;;13.00;;
3865;SDS011;1948;53.250;10.412;2022-11-27T16:00:43;22.67;;;13.47;;
3865;SDS011;1948;53.250;10.412;2022-11-27T16:03:11;24.20;;;13.10;;
3865;SDS011;1948;53.250;10.412;2022-11-27T16:05:39;21.03;;;12.50;;
3865;SDS011;1948;53.250;10.412;2022-11-27T16:08:09;26.50;;;12.97;;
3865;SDS011;1948;53.250;10.412;2022-11-27T16:10:39;22.43;;;12.60;;
3865;SDS011;1948;53.250;10.412;2022-11-27T16:13:10;16.33;;;12.73;;
3865;SDS011;1948;53.250;10.412;2022-11-27T16:15:38;20.20;;;13.47;;
3865;SDS011;1948;53.250;10.412;2022-11-27T16:18:05;16.50;;;13.40;;
3865;SDS011;1948;53.250;10.412;2022-11-27T16:20:32;20.37;;;13.43;;
3865;SDS011;1948;53.250;10.412;2022-11-27T16:22:59;20.63;;;12.93;;
3865;SDS011;1948;53.250;10.412;2022-11-27T16:25:26;18.83;;;12.70;;
3865;SDS011;1948;53.250;10.412;2022-11-27T16:27:53;20.20;;;13.77;;
3865;SDS011;1948;53.250;10.412;2022-11-27T16:30:28;21.90;;;12.47;;
3865;SDS011;1948;53.250;10.412;2022-11-27T16:32:56;20.40;;;13.80;;
3865;SDS011;1948;53.250;10.412;2022-11-27T16:35:23;23.40;;;13.67;;
3865;SDS011;1948;53.250;10.412;2022-11-27T16:37:50;20.23;;;13.00;;
3865;SDS011;1948;53.250;10.412;2022-11-27T16:40:18;21.83;;;14.07;;
3865;SDS011;1948;53.250;10.412;2022-11-27T16:42:47;25.43;;;14.13;;
3865;SDS011;1948;53.250;10.412;2022-11-27T16:45:16;18.43;;;13.43;;
3865;SDS011;1948;53.250;10.412;2022-11-27T16:47:46;25.63;;;14.10;;
3865;SDS011;1948;53.250;10.412;2022-11-27T16:50:15;22.80;;;14.73;;
3865;SDS011;1948;53.250;10.412;2022-11-27T16:52:42;28.80;;;14.40;;
3865;SDS011;1948;53.250;10.412;2022-11-27T16:55:19;25.07;;;13.43;;
3865;SDS011;1948;53.250;10.412;2022-11-27T16:57:47;19.37;;;13.27;;
3865;SDS011;1948;53.250;10.412;2022-11-27T17:00:14;37.93;;;14.17;;
3865;SDS011;1948;53.250;10.412;2022-11-27T17:02:44;24.03;;;14.30;;
3865;SDS011;1948;53.250;10.412;2022-11-27T17:05:11;20.17;;;12.90;;
3865;SDS011;1948;53.250;10.412;2022-11-27T17:07:38;25.73;;;14.27;;
3865;SDS011;1948;53.250;10.412;2022-11-27T17:10:07;20.43;;;13.77;;
3865;SDS011;1948;53.250;10.412;2022-11-27T17:12:34;21.10;;;13.40;;
3865;SDS011;1948;53.250;10.412;2022-11-27T17:15:01;31.73;;;15.10;;
3865;SDS011;1948;53.250;10.412;2022-11-27T17:17:32;25.97;;;15.10;;
3865;SDS011;1948;53.250;10.412;2022-11-27T17:20:05;22.50;;;14.13;;